sensor_id;sensor_type;location;lat;lon;timestamp;pressure;altitude;pressure_sealevel;temperature;humidity
9672;BME280;4874;43.568;27.824;2022-10-17T00:01:29;100368.75;;;9.83;100.00
9672;BME280;4874;43.568;27.824;2022-10-17T00:03:55;100376.38;;;9.88;100.00
9672;BME280;4874;43.568;27.824;2022-10-17T00:06:22;100365.75;;;9.88;100.00
9672;BME280;4874;43.568;27.824;2022-10-17T00:08:49;100361.94;;;9.92;100.00
9672;BME280;4874;43.568;27.824;2022-10-17T00:11:20;100376.16;;;9.91;100.00
9672;BME280;4874;43.568;27.824;2022-10-17T00:13:47;100369.34;;;9.99;100.00
9672;BME280;4874;43.568;27.824;2022-10-17T00:16:21;100375.13;;;10.06;100.00
9672;BME280;4874;43.568;27.824;2022-10-17T00:18:48;100379.78;;;10.02;100.00
9672;BME280;4874;43.568;27.824;2022-10-17T00:21:17;100371.63;;;10.18;100.00
9672;BME280;4874;43.568;27.824;2022-10-17T00:23:44;100372.56;;;10.17;100.00
9672;BME280;4874;43.568;27.824;2022-10-17T00:26:11;100366.09;;;10.08;100.00
9672;BME280;4874;43.568;27.824;2022-10-17T00:28:38;100370.03;;;10.15;100.00
9672;BME280;4874;43.568;27.824;2022-10-17T00:31:05;100358.16;;;10.08;100.00
9672;BME280;4874;43.568;27.824;2022-10-17T00:33:34;100365.97;;;9.97;100.00
9672;BME280;4874;43.568;27.824;2022-10-17T00:36:05;100366.28;;;10.05;100.00
9672;BME280;4874;43.568;27.824;2022-10-17T00:38:33;100372.66;;;10.03;100.00
9672;BME280;4874;43.568;27.824;2022-10-17T00:41:00;100368.63;;;9.85;100.00
9672;BME280;4874;43.568;27.824;2022-10-17T00:43:27;100364.19;;;9.85;100.00
9672;BME280;4874;43.568;27.824;2022-10-17T00:45:55;100362.28;;;9.87;100.00
9672;BME280;4874;43.568;27.824;2022-10-17T00:48:23;100368.00;;;9.81;100.00
9672;BME280;4874;43.568;27.824;2022-10-17T00:50:51;100373.38;;;9.67;100.00
9672;BME280;4874;43.568;27.824;2022-10-17T00:53:18;100364.38;;;9.70;100.00
9672;BME280;4874;43.568;27.824;2022-10-17T00:55:50;100358.75;;;9.74;100.00
9672;BME280;4874;43.568;27.824;2022-10-17T00:58:18;100374.13;;;9.94;100.00
9672;BME280;4874;43.568;27.824;2022-10-17T01:00:47;100380.06;;;9.98;100.00
9672;BME280;4874;43.568;27.824;2022-10-17T01:03:14;100379.78;;;9.90;100.00
9672;BME280;4874;43.568;27.824;2022-10-17T01:05:41;100382.94;;;9.82;100.00
9672;BME280;4874;43.568;27.824;2022-10-17T01:08:08;100374.47;;;9.90;100.00
9672;BME280;4874;43.568;27.824;2022-10-17T01:10:56;100350.78;;;9.74;100.00
9672;BME280;4874;43.568;27.824;2022-10-17T01:14:38;100368.63;;;9.85;100.00
9672;BME280;4874;43.568;27.824;2022-10-17T01:16:41;100376.91;;;10.05;100.00
9672;BME280;4874;43.568;27.824;2022-10-17T01:22:12;100379.13;;;9.99;100.00
9672;BME280;4874;43.568;27.824;2022-10-17T01:27:22;100373.63;;;10.02;100.00
9672;BME280;4874;43.568;27.824;2022-10-17T01:29:54;100370.31;;;9.98;100.00
9672;BME280;4874;43.568;27.824;2022-10-17T01:35:03;100362.06;;;10.15;100.00
9672;BME280;4874;43.568;27.824;2022-10-17T01:38:05;100370.25;;;10.25;100.00
9672;BME280;4874;43.568;27.824;2022-10-17T01:40:48;100367.38;;;10.15;100.00
9672;BME280;4874;43.568;27.824;2022-10-17T01:43:23;100368.66;;;10.10;100.00
9672;BME280;4874;43.568;27.824;2022-10-17T01:45:58;100372.56;;;9.92;100.00
9672;BME280;4874;43.568;27.824;2022-10-17T01:48:35;100379.78;;;9.90;100.00
9672;BME280;4874;43.568;27.824;2022-10-17T01:51:16;100377.47;;;10.10;100.00
9672;BME280;4874;43.568;27.824;2022-10-17T01:53:51;100377.34;;;10.12;100.00
9672;BME280;4874;43.568;27.824;2022-10-17T01:56:19;100382.97;;;10.07;100.00
9672;BME280;4874;43.568;27.824;2022-10-17T01:59:00;100387.00;;;10.00;100.00
9672;BME280;4874;43.568;27.824;2022-10-17T02:01:29;100344.00;;;9.70;100.00
9672;BME280;4874;43.568;27.824;2022-10-17T02:03:57;100386.97;;;9.88;100.00
9672;BME280;4874;43.568;27.824;2022-10-17T02:06:24;100377.84;;;9.92;100.00
9672;BME280;4874;43.568;27.824;2022-10-17T02:08:51;100390.25;;;9.91;100.00
9672;BME280;4874;43.568;27.824;2022-10-17T02:11:23;100398.44;;;9.88;100.00
9672;BME280;4874;43.568;27.824;2022-10-17T02:22:19;100406.69;;;9.71;100.00
9672;BME280;4874;43.568;27.824;2022-10-17T02:24:59;100413.28;;;9.78;100.00
9672;BME280;4874;43.568;27.824;2022-10-17T02:35:21;100410.94;;;9.74;100.00
9672;BME280;4874;43.568;27.824;2022-10-17T02:37:50;100395.84;;;9.49;100.00
9672;BME280;4874;43.568;27.824;2022-10-17T02:40:20;100422.28;;;9.76;100.00
9672;BME280;4874;43.568;27.824;2022-10-17T02:42:48;100426.34;;;9.81;100.00
9672;BME280;4874;43.568;27.824;2022-10-17T02:45:15;100430.06;;;9.79;100.00
9672;BME280;4874;43.568;27.824;2022-10-17T02:50:13;100431.63;;;9.81;100.00
9672;BME280;4874;43.568;27.824;2022-10-17T02:53:13;100434.19;;;9.83;100.00
9672;BME280;4874;43.568;27.824;2022-10-17T02:55:50;100431.53;;;9.83;100.00
9672;BME280;4874;43.568;27.824;2022-10-17T02:58:21;100428.13;;;9.81;100.00
9672;BME280;4874;43.568;27.824;2022-10-17T03:00:49;100426.34;;;9.81;100.00
9672;BME280;4874;43.568;27.824;2022-10-17T03:03:24;100431.75;;;9.80;100.00
9672;BME280;4874;43.568;27.824;2022-10-17T03:05:51;100426.19;;;9.70;100.00
9672;BME280;4874;43.568;27.824;2022-10-17T03:08:19;100437.69;;;9.83;100.00
9672;BME280;4874;43.568;27.824;2022-10-17T03:10:46;100433.53;;;9.79;100.00
9672;BME280;4874;43.568;27.824;2022-10-17T03:13:13;100441.59;;;9.78;100.00
9672;BME280;4874;43.568;27.824;2022-10-17T03:15:40;100342.44;;;9.16;100.00
9672;BME280;4874;43.568;27.824;2022-10-17T03:18:07;100442.97;;;9.71;100.00
9672;BME280;4874;43.568;27.824;2022-10-17T03:20:34;100443.50;;;9.76;100.00
9672;BME280;4874;43.568;27.824;2022-10-17T03:23:01;100430.31;;;9.62;100.00
9672;BME280;4874;43.568;27.824;2022-10-17T03:25:28;100421.97;;;9.41;100.00
9672;BME280;4874;43.568;27.824;2022-10-17T03:27:56;100458.06;;;9.43;100.00
9672;BME280;4874;43.568;27.824;2022-10-17T03:30:23;100459.84;;;9.43;100.00
9672;BME280;4874;43.568;27.824;2022-10-17T03:32:49;100454.47;;;9.18;100.00
9672;BME280;4874;43.568;27.824;2022-10-17T03:35:16;100457.97;;;9.18;100.00
9672;BME280;4874;43.568;27.824;2022-10-17T03:37:43;100454.84;;;9.12;100.00
9672;BME280;4874;43.568;27.824;2022-10-17T03:40:10;100416.41;;;8.92;100.00
9672;BME280;4874;43.568;27.824;2022-10-17T03:42:36;100460.06;;;9.13;100.00
9672;BME280;4874;43.568;27.824;2022-10-17T03:45:03;100422.81;;;9.02;100.00
9672;BME280;4874;43.568;27.824;2022-10-17T03:47:30;100456.34;;;9.16;100.00
9672;BME280;4874;43.568;27.824;2022-10-17T03:49:57;100468.69;;;9.29;100.00
9672;BME280;4874;43.568;27.824;2022-10-17T03:52:24;100465.59;;;9.23;100.00
9672;BME280;4874;43.568;27.824;2022-10-17T03:54:51;100474.97;;;9.28;100.00
9672;BME280;4874;43.568;27.824;2022-10-17T03:57:17;100468.91;;;9.26;100.00
9672;BME280;4874;43.568;27.824;2022-10-17T03:59:44;100470.25;;;9.19;100.00
9672;BME280;4874;43.568;27.824;2022-10-17T04:02:11;100472.66;;;9.10;100.00
9672;BME280;4874;43.568;27.824;2022-10-17T04:04:37;100470.38;;;9.04;100.00
9672;BME280;4874;43.568;27.824;2022-10-17T04:07:04;100467.47;;;8.94;100.00
9672;BME280;4874;43.568;27.824;2022-10-17T04:09:31;100466.72;;;8.92;100.00
9672;BME280;4874;43.568;27.824;2022-10-17T04:11:57;100469.47;;;9.05;100.00
9672;BME280;4874;43.568;27.824;2022-10-17T04:14:24;100472.91;;;9.19;100.00
9672;BME280;4874;43.568;27.824;2022-10-17T04:16:50;100472.75;;;9.08;100.00
9672;BME280;4874;43.568;27.824;2022-10-17T04:19:18;100479.56;;;8.98;100.00
9672;BME280;4874;43.568;27.824;2022-10-17T04:21:45;100478.34;;;8.90;100.00
9672;BME280;4874;43.568;27.824;2022-10-17T04:24:12;100477.19;;;9.08;100.00
9672;BME280;4874;43.568;27.824;2022-10-17T04:26:39;100465.53;;;9.10;100.00
9672;BME280;4874;43.568;27.824;2022-10-17T04:29:05;100474.78;;;9.17;100.00
9672;BME280;4874;43.568;27.824;2022-10-17T04:31:32;100469.38;;;8.92;100.00
9672;BME280;4874;43.568;27.824;2022-10-17T04:33:59;100470.13;;;8.94;100.00
9672;BME280;4874;43.568;27.824;2022-10-17T04:36:25;100481.63;;;9.07;100.00
9672;BME280;4874;43.568;27.824;2022-10-17T04:38:52;100479.19;;;9.04;100.00
9672;BME280;4874;43.568;27.824;2022-10-17T04:41:18;100468.09;;;9.12;100.00
9672;BME280;4874;43.568;27.824;2022-10-17T04:43:45;100475.13;;;8.99;100.00
9672;BME280;4874;43.568;27.824;2022-10-17T04:46:15;100462.41;;;8.77;100.00
9672;BME280;4874;43.568;27.824;2022-10-17T04:48:42;100472.09;;;9.05;100.00
9672;BME280;4874;43.568;27.824;2022-10-17T04:51:12;100487.50;;;9.12;100.00
9672;BME280;4874;43.568;27.824;2022-10-17T04:53:40;100482.03;;;9.01;100.00
9672;BME280;4874;43.568;27.824;2022-10-17T04:56:10;100481.69;;;8.79;100.00
9672;BME280;4874;43.568;27.824;2022-10-17T04:58:37;100492.56;;;8.89;100.00
9672;BME280;4874;43.568;27.824;2022-10-17T05:01:09;100489.00;;;9.16;100.00
9672;BME280;4874;43.568;27.824;2022-10-17T05:03:37;100489.09;;;9.15;100.00
9672;BME280;4874;43.568;27.824;2022-10-17T05:06:07;100498.25;;;9.23;100.00
9672;BME280;4874;43.568;27.824;2022-10-17T05:08:35;100491.78;;;9.27;100.00
9672;BME280;4874;43.568;27.824;2022-10-17T05:11:02;100492.94;;;9.37;100.00
9672;BME280;4874;43.568;27.824;2022-10-17T05:13:29;100496.50;;;9.36;100.00
9672;BME280;4874;43.568;27.824;2022-10-17T05:16:00;100476.28;;;9.35;100.00
9672;BME280;4874;43.568;27.824;2022-10-17T05:18:27;100502.25;;;9.70;100.00
9672;BME280;4874;43.568;27.824;2022-10-17T05:20:54;100506.88;;;9.80;100.00
9672;BME280;4874;43.568;27.824;2022-10-17T05:23:21;100510.16;;;9.84;100.00
9672;BME280;4874;43.568;27.824;2022-10-17T05:25:52;100507.97;;;10.03;100.00
9672;BME280;4874;43.568;27.824;2022-10-17T05:28:19;100516.56;;;10.06;100.00
9672;BME280;4874;43.568;27.824;2022-10-17T05:30:45;100517.34;;;10.08;100.00
9672;BME280;4874;43.568;27.824;2022-10-17T05:33:12;100521.19;;;10.17;100.00
9672;BME280;4874;43.568;27.824;2022-10-17T05:35:38;100525.53;;;10.30;100.00
9672;BME280;4874;43.568;27.824;2022-10-17T05:38:05;100535.56;;;10.52;100.00
9672;BME280;4874;43.568;27.824;2022-10-17T05:40:32;100527.78;;;10.49;100.00
9672;BME280;4874;43.568;27.824;2022-10-17T05:42:59;100537.78;;;10.58;100.00
9672;BME280;4874;43.568;27.824;2022-10-17T05:45:26;100543.09;;;10.83;100.00
9672;BME280;4874;43.568;27.824;2022-10-17T05:47:52;100532.91;;;10.77;100.00
9672;BME280;4874;43.568;27.824;2022-10-17T05:50:19;100537.34;;;10.77;100.00
9672;BME280;4874;43.568;27.824;2022-10-17T05:52:54;100545.31;;;10.89;100.00
9672;BME280;4874;43.568;27.824;2022-10-17T05:55:21;100529.09;;;11.66;100.00
9672;BME280;4874;43.568;27.824;2022-10-17T05:57:48;100558.56;;;11.14;100.00
9672;BME280;4874;43.568;27.824;2022-10-17T06:00:16;100561.78;;;11.07;100.00
9672;BME280;4874;43.568;27.824;2022-10-17T06:02:43;100562.84;;;11.04;100.00
9672;BME280;4874;43.568;27.824;2022-10-17T06:05:12;100563.78;;;11.16;100.00
9672;BME280;4874;43.568;27.824;2022-10-17T06:07:39;100559.94;;;11.20;100.00
9672;BME280;4874;43.568;27.824;2022-10-17T06:10:06;100574.53;;;11.50;100.00
9672;BME280;4874;43.568;27.824;2022-10-17T06:12:35;100576.81;;;11.31;100.00
9672;BME280;4874;43.568;27.824;2022-10-17T06:15:02;100577.44;;;11.35;100.00
9672;BME280;4874;43.568;27.824;2022-10-17T06:17:29;100574.22;;;11.55;100.00
9672;BME280;4874;43.568;27.824;2022-10-17T06:19:55;100570.22;;;11.97;100.00
9672;BME280;4874;43.568;27.824;2022-10-17T06:22:22;100575.00;;;12.04;100.00
9672;BME280;4874;43.568;27.824;2022-10-17T06:24:49;100585.13;;;12.23;100.00
9672;BME280;4874;43.568;27.824;2022-10-17T06:27:15;100583.88;;;12.16;100.00
9672;BME280;4874;43.568;27.824;2022-10-17T06:29:42;100581.41;;;12.36;100.00
9672;BME280;4874;43.568;27.824;2022-10-17T06:32:09;100582.06;;;12.51;100.00
9672;BME280;4874;43.568;27.824;2022-10-17T06:34:36;100595.56;;;12.71;100.00
9672;BME280;4874;43.568;27.824;2022-10-17T06:37:03;100589.41;;;12.93;100.00
9672;BME280;4874;43.568;27.824;2022-10-17T06:39:30;100596.66;;;12.91;100.00
9672;BME280;4874;43.568;27.824;2022-10-17T06:42:00;100577.06;;;13.03;100.00
9672;BME280;4874;43.568;27.824;2022-10-17T06:44:26;100591.63;;;13.32;100.00
9672;BME280;4874;43.568;27.824;2022-10-17T06:46:58;100561.34;;;13.11;100.00
9672;BME280;4874;43.568;27.824;2022-10-17T06:49:26;100606.88;;;13.74;100.00
9672;BME280;4874;43.568;27.824;2022-10-17T06:51:53;100580.13;;;13.85;100.00
9672;BME280;4874;43.568;27.824;2022-10-17T06:54:20;100587.47;;;13.72;100.00
9672;BME280;4874;43.568;27.824;2022-10-17T06:56:47;100578.47;;;13.73;100.00
9672;BME280;4874;43.568;27.824;2022-10-17T06:59:14;100585.41;;;14.07;100.00
9672;BME280;4874;43.568;27.824;2022-10-17T07:01:41;100586.53;;;14.37;100.00
9672;BME280;4874;43.568;27.824;2022-10-17T07:04:09;100587.06;;;14.72;100.00
9672;BME280;4874;43.568;27.824;2022-10-17T07:06:37;100580.56;;;14.65;100.00
9672;BME280;4874;43.568;27.824;2022-10-17T07:09:04;100591.09;;;14.66;100.00
9672;BME280;4874;43.568;27.824;2022-10-17T07:11:32;100592.84;;;14.97;100.00
9672;BME280;4874;43.568;27.824;2022-10-17T07:14:02;100597.06;;;15.00;100.00
9672;BME280;4874;43.568;27.824;2022-10-17T07:16:29;100589.34;;;14.76;100.00
9672;BME280;4874;43.568;27.824;2022-10-17T07:18:55;100578.47;;;14.98;100.00
9672;BME280;4874;43.568;27.824;2022-10-17T07:21:22;100602.81;;;15.25;100.00
9672;BME280;4874;43.568;27.824;2022-10-17T07:23:49;100602.81;;;14.95;100.00
9672;BME280;4874;43.568;27.824;2022-10-17T07:26:17;100600.56;;;15.21;100.00
9672;BME280;4874;43.568;27.824;2022-10-17T07:28:46;100603.06;;;15.13;100.00
9672;BME280;4874;43.568;27.824;2022-10-17T07:31:15;100611.19;;;15.62;100.00
9672;BME280;4874;43.568;27.824;2022-10-17T07:33:43;100586.16;;;15.92;100.00
9672;BME280;4874;43.568;27.824;2022-10-17T07:36:15;100583.63;;;16.00;100.00
9672;BME280;4874;43.568;27.824;2022-10-17T07:38:42;100595.53;;;15.58;100.00
9672;BME280;4874;43.568;27.824;2022-10-17T07:41:11;100601.19;;;15.64;100.00
9672;BME280;4874;43.568;27.824;2022-10-17T07:43:41;100580.81;;;16.20;100.00
9672;BME280;4874;43.568;27.824;2022-10-17T07:46:08;100588.44;;;16.34;100.00
9672;BME280;4874;43.568;27.824;2022-10-17T07:48:39;100585.34;;;16.20;100.00
9672;BME280;4874;43.568;27.824;2022-10-17T07:51:07;100586.91;;;16.22;100.00
9672;BME280;4874;43.568;27.824;2022-10-17T07:53:37;100590.00;;;16.18;100.00
9672;BME280;4874;43.568;27.824;2022-10-17T07:56:08;100585.06;;;16.32;100.00
9672;BME280;4874;43.568;27.824;2022-10-17T07:58:36;100578.88;;;16.61;100.00
9672;BME280;4874;43.568;27.824;2022-10-17T08:01:05;100574.75;;;16.37;100.00
9672;BME280;4874;43.568;27.824;2022-10-17T08:03:33;100586.03;;;16.41;100.00
9672;BME280;4874;43.568;27.824;2022-10-17T08:06:01;100581.25;;;16.64;100.00
9672;BME280;4874;43.568;27.824;2022-10-17T08:08:28;100588.00;;;16.77;100.00
9672;BME280;4874;43.568;27.824;2022-10-17T08:11:01;100582.19;;;16.82;100.00
9672;BME280;4874;43.568;27.824;2022-10-17T08:13:28;100580.13;;;16.57;100.00
9672;BME280;4874;43.568;27.824;2022-10-17T08:15:58;100572.63;;;16.70;100.00
9672;BME280;4874;43.568;27.824;2022-10-17T08:18:25;100583.72;;;16.94;100.00
9672;BME280;4874;43.568;27.824;2022-10-17T08:20:52;100580.06;;;17.31;100.00
9672;BME280;4874;43.568;27.824;2022-10-17T08:23:20;100584.22;;;17.26;100.00
9672;BME280;4874;43.568;27.824;2022-10-17T08:25:47;100582.91;;;17.30;100.00
9672;BME280;4874;43.568;27.824;2022-10-17T08:28:14;100583.44;;;17.33;100.00
9672;BME280;4874;43.568;27.824;2022-10-17T08:30:40;100588.47;;;17.19;100.00
9672;BME280;4874;43.568;27.824;2022-10-17T08:33:07;100587.06;;;17.15;100.00
9672;BME280;4874;43.568;27.824;2022-10-17T08:35:34;100585.72;;;17.38;100.00
9672;BME280;4874;43.568;27.824;2022-10-17T08:38:00;100585.97;;;17.35;100.00
9672;BME280;4874;43.568;27.824;2022-10-17T08:40:29;100613.84;;;17.34;100.00
9672;BME280;4874;43.568;27.824;2022-10-17T08:43:14;100590.09;;;16.93;100.00
9672;BME280;4874;43.568;27.824;2022-10-17T08:45:59;100599.66;;;17.05;100.00
9672;BME280;4874;43.568;27.824;2022-10-17T08:48:32;100599.97;;;17.02;100.00
9672;BME280;4874;43.568;27.824;2022-10-17T08:51:04;100595.50;;;17.20;100.00
9672;BME280;4874;43.568;27.824;2022-10-17T08:54:19;100605.94;;;17.23;100.00
9672;BME280;4874;43.568;27.824;2022-10-17T08:56:50;100591.72;;;17.22;100.00
9672;BME280;4874;43.568;27.824;2022-10-17T08:59:27;100603.13;;;17.24;100.00
9672;BME280;4874;43.568;27.824;2022-10-17T09:07:21;100597.38;;;17.56;100.00
9672;BME280;4874;43.568;27.824;2022-10-17T09:21:24;100606.47;;;18.00;100.00
9672;BME280;4874;43.568;27.824;2022-10-17T09:23:55;100596.66;;;18.08;100.00
9672;BME280;4874;43.568;27.824;2022-10-17T09:26:29;100601.38;;;17.42;100.00
9672;BME280;4874;43.568;27.824;2022-10-17T09:28:58;100607.13;;;18.02;100.00
9672;BME280;4874;43.568;27.824;2022-10-17T09:31:29;100601.75;;;17.84;100.00
9672;BME280;4874;43.568;27.824;2022-10-17T09:34:00;100612.88;;;17.89;100.00
9672;BME280;4874;43.568;27.824;2022-10-17T09:36:31;100608.59;;;17.96;100.00
9672;BME280;4874;43.568;27.824;2022-10-17T09:39:19;100593.31;;;17.97;100.00
9672;BME280;4874;43.568;27.824;2022-10-17T09:41:50;100597.03;;;18.48;100.00
9672;BME280;4874;43.568;27.824;2022-10-17T09:47:02;100602.97;;;17.90;100.00
9672;BME280;4874;43.568;27.824;2022-10-17T09:49:34;100604.38;;;17.67;100.00
9672;BME280;4874;43.568;27.824;2022-10-17T09:52:04;100593.69;;;17.84;100.00
9672;BME280;4874;43.568;27.824;2022-10-17T09:54:51;100595.56;;;17.74;100.00
9672;BME280;4874;43.568;27.824;2022-10-17T09:57:20;100533.38;;;17.51;100.00
9672;BME280;4874;43.568;27.824;2022-10-17T09:59:57;100581.88;;;18.30;100.00
9672;BME280;4874;43.568;27.824;2022-10-17T10:02:26;100580.38;;;18.45;100.00
9672;BME280;4874;43.568;27.824;2022-10-17T10:05:13;100580.03;;;17.95;100.00
9672;BME280;4874;43.568;27.824;2022-10-17T10:08:00;100584.22;;;17.80;100.00
9672;BME280;4874;43.568;27.824;2022-10-17T10:10:29;100579.81;;;18.06;100.00
9672;BME280;4874;43.568;27.824;2022-10-17T10:13:09;100582.72;;;17.95;100.00
9672;BME280;4874;43.568;27.824;2022-10-17T10:15:49;100587.94;;;18.14;100.00
9672;BME280;4874;43.568;27.824;2022-10-17T10:21:25;100588.13;;;18.48;100.00
9672;BME280;4874;43.568;27.824;2022-10-17T10:26:46;100579.88;;;18.67;100.00
9672;BME280;4874;43.568;27.824;2022-10-17T10:29:30;100575.56;;;18.56;100.00
9672;BME280;4874;43.568;27.824;2022-10-17T10:32:07;100571.63;;;18.68;100.00
9672;BME280;4874;43.568;27.824;2022-10-17T10:34:53;100574.56;;;18.75;100.00
9672;BME280;4874;43.568;27.824;2022-10-17T10:37:32;100585.47;;;18.73;100.00
9672;BME280;4874;43.568;27.824;2022-10-17T10:40:14;100578.44;;;18.81;100.00
9672;BME280;4874;43.568;27.824;2022-10-17T10:42:41;100562.38;;;18.89;100.00
9672;BME280;4874;43.568;27.824;2022-10-17T10:45:18;100571.63;;;18.68;100.00
9672;BME280;4874;43.568;27.824;2022-10-17T10:51:02;100549.88;;;18.80;100.00
9672;BME280;4874;43.568;27.824;2022-10-17T10:53:53;100565.59;;;18.31;100.00
9672;BME280;4874;43.568;27.824;2022-10-17T11:01:50;100557.09;;;18.79;100.00
9672;BME280;4874;43.568;27.824;2022-10-17T11:04:41;100555.66;;;18.93;100.00
9672;BME280;4874;43.568;27.824;2022-10-17T11:07:19;100566.91;;;19.14;100.00
9672;BME280;4874;43.568;27.824;2022-10-17T11:17:35;100549.84;;;19.31;100.00
9672;BME280;4874;43.568;27.824;2022-10-17T11:22:36;100545.25;;;18.98;100.00
9672;BME280;4874;43.568;27.824;2022-10-17T11:25:14;100551.00;;;19.03;100.00
9672;BME280;4874;43.568;27.824;2022-10-17T11:27:44;100539.66;;;18.91;100.00
9672;BME280;4874;43.568;27.824;2022-10-17T11:30:13;100542.66;;;19.14;100.00
9672;BME280;4874;43.568;27.824;2022-10-17T11:32:45;100545.22;;;19.23;100.00
9672;BME280;4874;43.568;27.824;2022-10-17T11:35:18;100546.06;;;19.24;100.00
9672;BME280;4874;43.568;27.824;2022-10-17T11:37:52;100539.78;;;19.07;100.00
9672;BME280;4874;43.568;27.824;2022-10-17T11:40:28;100539.09;;;19.05;100.00
9672;BME280;4874;43.568;27.824;2022-10-17T11:43:01;100543.69;;;19.13;100.00
9672;BME280;4874;43.568;27.824;2022-10-17T11:45:35;100519.19;;;18.98;100.00
9672;BME280;4874;43.568;27.824;2022-10-17T11:48:15;100544.03;;;19.18;100.00
9672;BME280;4874;43.568;27.824;2022-10-17T11:50:50;100530.25;;;19.21;100.00
9672;BME280;4874;43.568;27.824;2022-10-17T11:56:59;100537.41;;;19.30;100.00
9672;BME280;4874;43.568;27.824;2022-10-17T12:02:45;100530.31;;;19.03;100.00
9672;BME280;4874;43.568;27.824;2022-10-17T12:08:08;100535.41;;;19.40;100.00
9672;BME280;4874;43.568;27.824;2022-10-17T12:10:59;100523.16;;;19.20;100.00
9672;BME280;4874;43.568;27.824;2022-10-17T12:19:32;100527.56;;;19.21;100.00
9672;BME280;4874;43.568;27.824;2022-10-17T12:26:53;100513.16;;;19.30;100.00
9672;BME280;4874;43.568;27.824;2022-10-17T12:29:27;100524.47;;;19.41;100.00
9672;BME280;4874;43.568;27.824;2022-10-17T12:32:10;100523.94;;;19.30;100.00
9672;BME280;4874;43.568;27.824;2022-10-17T12:34:37;100531.28;;;19.28;100.00
9672;BME280;4874;43.568;27.824;2022-10-17T12:37:10;100529.88;;;19.16;100.00
9672;BME280;4874;43.568;27.824;2022-10-17T12:42:30;100523.81;;;19.14;100.00
9672;BME280;4874;43.568;27.824;2022-10-17T12:44:57;100529.59;;;19.27;100.00
9672;BME280;4874;43.568;27.824;2022-10-17T12:49:51;100528.31;;;19.31;100.00
9672;BME280;4874;43.568;27.824;2022-10-17T12:52:26;100527.66;;;19.37;100.00
9672;BME280;4874;43.568;27.824;2022-10-17T12:55:17;100527.34;;;19.40;100.00
9672;BME280;4874;43.568;27.824;2022-10-17T12:57:49;100531.53;;;19.42;100.00
9672;BME280;4874;43.568;27.824;2022-10-17T13:00:18;100528.03;;;19.42;99.80
9672;BME280;4874;43.568;27.824;2022-10-17T13:02:47;100522.34;;;19.19;100.00
9672;BME280;4874;43.568;27.824;2022-10-17T13:05:26;100522.06;;;19.30;100.00
9672;BME280;4874;43.568;27.824;2022-10-17T13:07:55;100523.44;;;19.34;100.00
9672;BME280;4874;43.568;27.824;2022-10-17T13:10:27;100525.34;;;19.42;100.00
9672;BME280;4874;43.568;27.824;2022-10-17T13:15:54;100524.78;;;19.05;100.00
9672;BME280;4874;43.568;27.824;2022-10-17T13:18:24;100519.75;;;19.10;100.00
9672;BME280;4874;43.568;27.824;2022-10-17T13:21:20;100523.38;;;19.26;100.00
9672;BME280;4874;43.568;27.824;2022-10-17T13:23:47;100527.81;;;19.10;100.00
9672;BME280;4874;43.568;27.824;2022-10-17T13:26:19;100521.78;;;19.08;100.00
9672;BME280;4874;43.568;27.824;2022-10-17T13:29:12;100528.94;;;19.25;100.00
9672;BME280;4874;43.568;27.824;2022-10-17T13:31:43;100526.06;;;18.93;100.00
9672;BME280;4874;43.568;27.824;2022-10-17T13:34:29;100532.16;;;19.03;100.00
9672;BME280;4874;43.568;27.824;2022-10-17T13:37:01;100531.50;;;19.01;100.00
9672;BME280;4874;43.568;27.824;2022-10-17T13:39:49;100530.44;;;18.94;100.00
9672;BME280;4874;43.568;27.824;2022-10-17T13:42:37;100535.00;;;19.01;100.00
9672;BME280;4874;43.568;27.824;2022-10-17T13:45:16;100515.47;;;18.65;100.00
9672;BME280;4874;43.568;27.824;2022-10-17T13:47:45;100535.41;;;18.81;100.00
9672;BME280;4874;43.568;27.824;2022-10-17T13:50:28;100527.56;;;18.87;100.00
9672;BME280;4874;43.568;27.824;2022-10-17T13:58:48;100536.81;;;18.67;100.00
9672;BME280;4874;43.568;27.824;2022-10-17T14:01:18;100545.25;;;18.72;100.00
9672;BME280;4874;43.568;27.824;2022-10-17T14:03:47;100528.75;;;18.67;100.00
9672;BME280;4874;43.568;27.824;2022-10-17T14:06:26;100536.00;;;18.66;100.00
9672;BME280;4874;43.568;27.824;2022-10-17T14:09:14;100535.34;;;18.72;100.00
9672;BME280;4874;43.568;27.824;2022-10-17T14:11:43;100522.94;;;18.54;100.00
9672;BME280;4874;43.568;27.824;2022-10-17T14:14:19;100540.75;;;18.55;100.00
9672;BME280;4874;43.568;27.824;2022-10-17T14:16:47;100538.38;;;18.34;100.00
9672;BME280;4874;43.568;27.824;2022-10-17T14:19:32;100543.03;;;18.42;100.00
9672;BME280;4874;43.568;27.824;2022-10-17T14:24:46;100544.47;;;18.19;100.00
9672;BME280;4874;43.568;27.824;2022-10-17T14:27:33;100544.94;;;18.14;100.00
9672;BME280;4874;43.568;27.824;2022-10-17T14:30:04;100547.41;;;18.08;100.00
9672;BME280;4874;43.568;27.824;2022-10-17T14:32:34;100539.41;;;17.81;100.00
9672;BME280;4874;43.568;27.824;2022-10-17T14:35:03;100551.09;;;17.89;100.00
9672;BME280;4874;43.568;27.824;2022-10-17T14:37:52;100559.22;;;17.52;100.00
9672;BME280;4874;43.568;27.824;2022-10-17T14:40:24;100560.38;;;17.40;100.00
9672;BME280;4874;43.568;27.824;2022-10-17T14:43:00;100563.53;;;17.36;100.00
9672;BME280;4874;43.568;27.824;2022-10-17T14:45:46;100562.28;;;17.30;100.00
9672;BME280;4874;43.568;27.824;2022-10-17T14:48:19;100565.22;;;17.37;100.00
9672;BME280;4874;43.568;27.824;2022-10-17T14:53:37;100575.59;;;17.22;100.00
9672;BME280;4874;43.568;27.824;2022-10-17T14:56:24;100576.47;;;17.13;100.00
9672;BME280;4874;43.568;27.824;2022-10-17T14:58:51;100570.31;;;16.94;100.00
9672;BME280;4874;43.568;27.824;2022-10-17T15:01:18;100576.28;;;16.88;100.00
9672;BME280;4874;43.568;27.824;2022-10-17T15:03:45;100582.06;;;16.83;100.00
9672;BME280;4874;43.568;27.824;2022-10-17T15:06:20;100579.69;;;16.71;100.00